sensor_id;sensor_type;location;lat;lon;timestamp;P1;durP1;ratioP1;P2;durP2;ratioP2
40256;SDS011;25977;45.462;9.210;2023-07-13T00:00:28;2.28;;;1.50;;
40256;SDS011;25977;45.462;9.210;2023-07-13T00:02:55;1.65;;;1.35;;
40256;SDS011;25977;45.462;9.210;2023-07-13T00:05:21;5.55;;;1.30;;
40256;SDS011;25977;45.462;9.210;2023-07-13T00:07:48;1.85;;;1.63;;
40256;SDS011;25977;45.462;9.210;2023-07-13T00:10:15;2.92;;;1.60;;
40256;SDS011;25977;45.462;9.210;2023-07-13T00:12:41;3.45;;;1.60;;
40256;SDS011;25977;45.462;9.210;2023-07-13T00:15:09;1.20;;;1.10;;
40256;SDS011;25977;45.462;9.210;2023-07-13T00:17:39;3.67;;;1.52;;
40256;SDS011;25977;45.462;9.210;2023-07-13T00:20:05;3.10;;;1.83;;
40256;SDS011;25977;45.462;9.210;2023-07-13T00:22:32;6.10;;;1.83;;
40256;SDS011;25977;45.462;9.210;2023-07-13T00:24:57;2.80;;;1.60;;
40256;SDS011;25977;45.462;9.210;2023-07-13T00:27:23;3.67;;;1.70;;
40256;SDS011;25977;45.462;9.210;2023-07-13T00:29:52;4.88;;;1.77;;
40256;SDS011;25977;45.462;9.210;2023-07-13T00:32:18;4.70;;;2.10;;
40256;SDS011;25977;45.462;9.210;2023-07-13T00:34:44;4.50;;;1.70;;
40256;SDS011;25977;45.462;9.210;2023-07-13T00:37:10;2.97;;;1.42;;
40256;SDS011;25977;45.462;9.210;2023-07-13T00:39:36;1.90;;;1.70;;
40256;SDS011;25977;45.462;9.210;2023-07-13T00:42:02;3.80;;;2.20;;
40256;SDS011;25977;45.462;9.210;2023-07-13T00:44:29;4.30;;;2.47;;
40256;SDS011;25977;45.462;9.210;2023-07-13T00:46:55;6.32;;;1.88;;
40256;SDS011;25977;45.462;9.210;2023-07-13T00:49:23;2.15;;;1.27;;
40256;SDS011;25977;45.462;9.210;2023-07-13T00:51:55;4.20;;;1.70;;
40256;SDS011;25977;45.462;9.210;2023-07-13T00:54:27;7.43;;;2.15;;
40256;SDS011;25977;45.462;9.210;2023-07-13T00:57:00;2.72;;;1.40;;
40256;SDS011;25977;45.462;9.210;2023-07-13T00:59:28;2.58;;;1.55;;
40256;SDS011;25977;45.462;9.210;2023-07-13T01:01:55;1.77;;;1.50;;
40256;SDS011;25977;45.462;9.210;2023-07-13T01:04:23;2.00;;;1.80;;
40256;SDS011;25977;45.462;9.210;2023-07-13T01:06:49;1.90;;;1.70;;
40256;SDS011;25977;45.462;9.210;2023-07-13T01:09:16;1.33;;;1.20;;
40256;SDS011;25977;45.462;9.210;2023-07-13T01:11:43;3.95;;;1.60;;
40256;SDS011;25977;45.462;9.210;2023-07-13T01:14:10;1.70;;;1.60;;
40256;SDS011;25977;45.462;9.210;2023-07-13T01:16:36;4.22;;;1.52;;
40256;SDS011;25977;45.462;9.210;2023-07-13T01:19:08;1.45;;;1.35;;
40256;SDS011;25977;45.462;9.210;2023-07-13T01:22:08;1.73;;;1.52;;
40256;SDS011;25977;45.462;9.210;2023-07-13T01:24:38;4.93;;;1.77;;
40256;SDS011;25977;45.462;9.210;2023-07-13T01:27:06;3.97;;;1.63;;
40256;SDS011;25977;45.462;9.210;2023-07-13T01:29:33;2.78;;;1.42;;
40256;SDS011;25977;45.462;9.210;2023-07-13T01:32:00;2.90;;;1.65;;
40256;SDS011;25977;45.462;9.210;2023-07-13T01:34:26;5.07;;;1.85;;
40256;SDS011;25977;45.462;9.210;2023-07-13T01:36:52;4.85;;;1.70;;
40256;SDS011;25977;45.462;9.210;2023-07-13T01:39:22;1.92;;;1.52;;
40256;SDS011;25977;45.462;9.210;2023-07-13T01:41:48;3.42;;;1.95;;
40256;SDS011;25977;45.462;9.210;2023-07-13T01:44:13;2.40;;;1.77;;
40256;SDS011;25977;45.462;9.210;2023-07-13T01:46:39;4.03;;;1.92;;
40256;SDS011;25977;45.462;9.210;2023-07-13T01:49:05;4.90;;;2.72;;
40256;SDS011;25977;45.462;9.210;2023-07-13T01:51:31;3.95;;;1.90;;
40256;SDS011;25977;45.462;9.210;2023-07-13T01:53:56;2.30;;;1.58;;
40256;SDS011;25977;45.462;9.210;2023-07-13T01:56:22;3.60;;;2.20;;
40256;SDS011;25977;45.462;9.210;2023-07-13T01:58:48;4.72;;;2.25;;
40256;SDS011;25977;45.462;9.210;2023-07-13T02:01:14;5.18;;;2.20;;
40256;SDS011;25977;45.462;9.210;2023-07-13T02:03:39;2.78;;;1.98;;
40256;SDS011;25977;45.462;9.210;2023-07-13T02:06:05;2.95;;;2.10;;
40256;SDS011;25977;45.462;9.210;2023-07-13T02:08:32;9.10;;;2.28;;
40256;SDS011;25977;45.462;9.210;2023-07-13T02:10:58;4.45;;;2.00;;
40256;SDS011;25977;45.462;9.210;2023-07-13T02:13:24;3.25;;;1.92;;
40256;SDS011;25977;45.462;9.210;2023-07-13T02:15:51;2.85;;;2.47;;
40256;SDS011;25977;45.462;9.210;2023-07-13T02:18:17;4.40;;;2.10;;
40256;SDS011;25977;45.462;9.210;2023-07-13T02:20:43;2.90;;;1.92;;
40256;SDS011;25977;45.462;9.210;2023-07-13T02:23:10;2.00;;;1.90;;
40256;SDS011;25977;45.462;9.210;2023-07-13T02:25:36;6.13;;;1.80;;
40256;SDS011;25977;45.462;9.210;2023-07-13T02:28:02;2.33;;;1.58;;
40256;SDS011;25977;45.462;9.210;2023-07-13T02:30:28;2.00;;;1.90;;
40256;SDS011;25977;45.462;9.210;2023-07-13T02:32:56;2.65;;;1.75;;
40256;SDS011;25977;45.462;9.210;2023-07-13T02:35:22;7.70;;;2.35;;
40256;SDS011;25977;45.462;9.210;2023-07-13T02:37:48;2.28;;;2.15;;
40256;SDS011;25977;45.462;9.210;2023-07-13T02:40:14;3.67;;;1.63;;
40256;SDS011;25977;45.462;9.210;2023-07-13T02:42:39;5.00;;;2.75;;
40256;SDS011;25977;45.462;9.210;2023-07-13T02:45:06;2.00;;;1.50;;
40256;SDS011;25977;45.462;9.210;2023-07-13T02:47:33;2.92;;;2.65;;
40256;SDS011;25977;45.462;9.210;2023-07-13T02:49:59;3.65;;;1.98;;
40256;SDS011;25977;45.462;9.210;2023-07-13T02:52:25;8.07;;;2.53;;
40256;SDS011;25977;45.462;9.210;2023-07-13T02:54:50;4.95;;;1.92;;
40256;SDS011;25977;45.462;9.210;2023-07-13T02:57:16;1.90;;;1.80;;
40256;SDS011;25977;45.462;9.210;2023-07-13T02:59:42;3.83;;;1.85;;
40256;SDS011;25977;45.462;9.210;2023-07-13T03:02:08;2.08;;;1.70;;
40256;SDS011;25977;45.462;9.210;2023-07-13T03:04:36;2.22;;;2.08;;
40256;SDS011;25977;45.462;9.210;2023-07-13T03:07:02;2.03;;;1.70;;
40256;SDS011;25977;45.462;9.210;2023-07-13T03:09:34;1.60;;;1.48;;
40256;SDS011;25977;45.462;9.210;2023-07-13T03:12:02;2.88;;;1.98;;
40256;SDS011;25977;45.462;9.210;2023-07-13T03:14:31;3.70;;;1.98;;
40256;SDS011;25977;45.462;9.210;2023-07-13T03:16:58;3.60;;;2.00;;
40256;SDS011;25977;45.462;9.210;2023-07-13T03:19:27;4.13;;;1.98;;
40256;SDS011;25977;45.462;9.210;2023-07-13T03:21:54;8.02;;;2.83;;
40256;SDS011;25977;45.462;9.210;2023-07-13T03:24:20;3.85;;;2.13;;
40256;SDS011;25977;45.462;9.210;2023-07-13T03:26:48;2.90;;;2.70;;
40256;SDS011;25977;45.462;9.210;2023-07-13T03:29:14;4.07;;;2.65;;
40256;SDS011;25977;45.462;9.210;2023-07-13T03:31:42;6.55;;;3.17;;
40256;SDS011;25977;45.462;9.210;2023-07-13T03:34:07;2.58;;;2.38;;
40256;SDS011;25977;45.462;9.210;2023-07-13T03:36:34;3.42;;;2.75;;
40256;SDS011;25977;45.462;9.210;2023-07-13T03:39:04;2.38;;;2.28;;
40256;SDS011;25977;45.462;9.210;2023-07-13T03:41:54;5.57;;;3.40;;
40256;SDS011;25977;45.462;9.210;2023-07-13T03:44:20;5.15;;;2.92;;
40256;SDS011;25977;45.462;9.210;2023-07-13T03:46:51;2.97;;;2.72;;
40256;SDS011;25977;45.462;9.210;2023-07-13T03:49:17;4.60;;;2.58;;
40256;SDS011;25977;45.462;9.210;2023-07-13T03:51:43;4.22;;;2.60;;
40256;SDS011;25977;45.462;9.210;2023-07-13T03:54:09;3.85;;;3.15;;
40256;SDS011;25977;45.462;9.210;2023-07-13T03:56:34;7.13;;;3.78;;
40256;SDS011;25977;45.462;9.210;2023-07-13T03:59:02;7.63;;;3.47;;
40256;SDS011;25977;45.462;9.210;2023-07-13T04:01:29;3.25;;;2.78;;
40256;SDS011;25977;45.462;9.210;2023-07-13T04:03:54;6.18;;;3.40;;
40256;SDS011;25977;45.462;9.210;2023-07-13T04:06:23;3.47;;;3.17;;
40256;SDS011;25977;45.462;9.210;2023-07-13T04:08:53;5.30;;;3.10;;
40256;SDS011;25977;45.462;9.210;2023-07-13T04:11:22;7.05;;;3.80;;
40256;SDS011;25977;45.462;9.210;2023-07-13T04:13:50;7.47;;;3.40;;
40256;SDS011;25977;45.462;9.210;2023-07-13T04:16:16;5.55;;;3.00;;
40256;SDS011;25977;45.462;9.210;2023-07-13T04:18:43;11.48;;;4.05;;
40256;SDS011;25977;45.462;9.210;2023-07-13T04:21:09;3.35;;;3.03;;
40256;SDS011;25977;45.462;9.210;2023-07-13T04:23:36;10.18;;;3.95;;
40256;SDS011;25977;45.462;9.210;2023-07-13T04:26:02;3.83;;;3.50;;
40256;SDS011;25977;45.462;9.210;2023-07-13T04:28:28;4.88;;;3.50;;
40256;SDS011;25977;45.462;9.210;2023-07-13T04:30:54;3.45;;;3.15;;
40256;SDS011;25977;45.462;9.210;2023-07-13T04:33:20;4.03;;;3.40;;
40256;SDS011;25977;45.462;9.210;2023-07-13T04:35:49;4.38;;;3.53;;
40256;SDS011;25977;45.462;9.210;2023-07-13T04:38:19;4.50;;;2.88;;
40256;SDS011;25977;45.462;9.210;2023-07-13T04:40:45;5.30;;;3.00;;
40256;SDS011;25977;45.462;9.210;2023-07-13T04:43:12;5.30;;;3.55;;
40256;SDS011;25977;45.462;9.210;2023-07-13T04:45:38;5.88;;;3.30;;
40256;SDS011;25977;45.462;9.210;2023-07-13T04:48:04;3.83;;;2.88;;
40256;SDS011;25977;45.462;9.210;2023-07-13T04:50:29;4.45;;;3.42;;
40256;SDS011;25977;45.462;9.210;2023-07-13T04:52:55;5.75;;;3.30;;
40256;SDS011;25977;45.462;9.210;2023-07-13T04:55:21;10.15;;;3.10;;
40256;SDS011;25977;45.462;9.210;2023-07-13T04:57:47;6.05;;;2.92;;
40256;SDS011;25977;45.462;9.210;2023-07-13T05:00:12;4.47;;;3.38;;
40256;SDS011;25977;45.462;9.210;2023-07-13T05:02:42;6.28;;;3.50;;
40256;SDS011;25977;45.462;9.210;2023-07-13T05:05:09;4.50;;;3.17;;
40256;SDS011;25977;45.462;9.210;2023-07-13T05:07:35;5.53;;;4.15;;
40256;SDS011;25977;45.462;9.210;2023-07-13T05:10:01;4.00;;;2.80;;
40256;SDS011;25977;45.462;9.210;2023-07-13T05:12:28;4.18;;;3.00;;
40256;SDS011;25977;45.462;9.210;2023-07-13T05:14:53;4.32;;;3.10;;
40256;SDS011;25977;45.462;9.210;2023-07-13T05:17:19;9.15;;;4.10;;
40256;SDS011;25977;45.462;9.210;2023-07-13T05:19:45;2.97;;;2.67;;
40256;SDS011;25977;45.462;9.210;2023-07-13T05:22:10;4.03;;;3.05;;
40256;SDS011;25977;45.462;9.210;2023-07-13T05:24:36;6.10;;;3.15;;
40256;SDS011;25977;45.462;9.210;2023-07-13T05:27:02;7.05;;;2.67;;
40256;SDS011;25977;45.462;9.210;2023-07-13T05:29:27;4.93;;;2.80;;
40256;SDS011;25977;45.462;9.210;2023-07-13T05:31:53;4.65;;;2.65;;
40256;SDS011;25977;45.462;9.210;2023-07-13T05:34:19;3.08;;;2.47;;
40256;SDS011;25977;45.462;9.210;2023-07-13T05:36:45;5.55;;;2.80;;
40256;SDS011;25977;45.462;9.210;2023-07-13T05:39:10;5.55;;;2.63;;
40256;SDS011;25977;45.462;9.210;2023-07-13T05:41:36;2.63;;;2.42;;
40256;SDS011;25977;45.462;9.210;2023-07-13T05:44:02;6.60;;;3.08;;
40256;SDS011;25977;45.462;9.210;2023-07-13T05:46:28;4.60;;;2.72;;
40256;SDS011;25977;45.462;9.210;2023-07-13T05:48:54;3.67;;;1.90;;
40256;SDS011;25977;45.462;9.210;2023-07-13T05:51:19;2.13;;;1.52;;
40256;SDS011;25977;45.462;9.210;2023-07-13T05:53:45;4.53;;;2.55;;
40256;SDS011;25977;45.462;9.210;2023-07-13T05:56:11;3.50;;;1.60;;
40256;SDS011;25977;45.462;9.210;2023-07-13T05:58:37;4.68;;;2.17;;
40256;SDS011;25977;45.462;9.210;2023-07-13T06:01:07;2.40;;;2.00;;
40256;SDS011;25977;45.462;9.210;2023-07-13T06:03:35;3.78;;;1.67;;
40256;SDS011;25977;45.462;9.210;2023-07-13T06:06:03;3.60;;;1.50;;
40256;SDS011;25977;45.462;9.210;2023-07-13T06:08:30;1.45;;;1.35;;
40256;SDS011;25977;45.462;9.210;2023-07-13T06:11:07;3.33;;;1.75;;
40256;SDS011;25977;45.462;9.210;2023-07-13T06:13:40;2.15;;;1.15;;
40256;SDS011;25977;45.462;9.210;2023-07-13T06:16:06;3.42;;;1.10;;
40256;SDS011;25977;45.462;9.210;2023-07-13T06:18:33;2.83;;;1.58;;
40256;SDS011;25977;45.462;9.210;2023-07-13T06:21:05;6.63;;;1.95;;
40256;SDS011;25977;45.462;9.210;2023-07-13T06:23:31;1.10;;;1.02;;
40256;SDS011;25977;45.462;9.210;2023-07-13T06:25:57;2.92;;;1.35;;
40256;SDS011;25977;45.462;9.210;2023-07-13T06:28:22;3.03;;;1.75;;
40256;SDS011;25977;45.462;9.210;2023-07-13T06:30:48;10.68;;;2.35;;
40256;SDS011;25977;45.462;9.210;2023-07-13T06:33:14;5.20;;;1.40;;
40256;SDS011;25977;45.462;9.210;2023-07-13T06:35:39;7.18;;;2.00;;
40256;SDS011;25977;45.462;9.210;2023-07-13T06:38:05;4.80;;;1.65;;
40256;SDS011;25977;45.462;9.210;2023-07-13T06:40:31;2.30;;;1.10;;
40256;SDS011;25977;45.462;9.210;2023-07-13T06:42:56;2.92;;;0.95;;
40256;SDS011;25977;45.462;9.210;2023-07-13T06:45:22;2.53;;;1.13;;
40256;SDS011;25977;45.462;9.210;2023-07-13T06:47:48;1.15;;;1.10;;
40256;SDS011;25977;45.462;9.210;2023-07-13T06:50:14;0.80;;;0.80;;
40256;SDS011;25977;45.462;9.210;2023-07-13T06:52:40;5.32;;;1.30;;
40256;SDS011;25977;45.462;9.210;2023-07-13T06:55:06;6.30;;;1.30;;
40256;SDS011;25977;45.462;9.210;2023-07-13T06:57:32;1.90;;;1.20;;
40256;SDS011;25977;45.462;9.210;2023-07-13T06:59:57;2.75;;;1.48;;
40256;SDS011;25977;45.462;9.210;2023-07-13T07:02:23;2.58;;;1.48;;
40256;SDS011;25977;45.462;9.210;2023-07-13T07:04:49;1.55;;;0.90;;
40256;SDS011;25977;45.462;9.210;2023-07-13T07:07:15;5.03;;;2.60;;
40256;SDS011;25977;45.462;9.210;2023-07-13T07:09:40;3.65;;;1.13;;
40256;SDS011;25977;45.462;9.210;2023-07-13T07:12:06;2.53;;;1.45;;
40256;SDS011;25977;45.462;9.210;2023-07-13T07:14:32;2.13;;;1.92;;
40256;SDS011;25977;45.462;9.210;2023-07-13T07:16:59;1.20;;;1.05;;
40256;SDS011;25977;45.462;9.210;2023-07-13T07:19:25;8.30;;;1.73;;
40256;SDS011;25977;45.462;9.210;2023-07-13T07:21:51;3.05;;;1.45;;
40256;SDS011;25977;45.462;9.210;2023-07-13T07:24:16;1.23;;;1.00;;
40256;SDS011;25977;45.462;9.210;2023-07-13T07:26:42;5.20;;;1.23;;
40256;SDS011;25977;45.462;9.210;2023-07-13T07:29:08;1.92;;;1.70;;
40256;SDS011;25977;45.462;9.210;2023-07-13T07:31:34;3.53;;;1.50;;
40256;SDS011;25977;45.462;9.210;2023-07-13T07:34:02;4.03;;;1.98;;
40256;SDS011;25977;45.462;9.210;2023-07-13T07:36:28;1.95;;;1.58;;
40256;SDS011;25977;45.462;9.210;2023-07-13T07:38:53;15.95;;;2.15;;
40256;SDS011;25977;45.462;9.210;2023-07-13T07:41:19;2.80;;;1.50;;
40256;SDS011;25977;45.462;9.210;2023-07-13T07:43:45;3.53;;;1.77;;
40256;SDS011;25977;45.462;9.210;2023-07-13T07:46:10;2.67;;;1.80;;
40256;SDS011;25977;45.462;9.210;2023-07-13T07:48:36;9.30;;;2.03;;
40256;SDS011;25977;45.462;9.210;2023-07-13T07:51:02;4.15;;;1.20;;
40256;SDS011;25977;45.462;9.210;2023-07-13T07:53:27;4.85;;;1.63;;
40256;SDS011;25977;45.462;9.210;2023-07-13T07:55:53;3.22;;;1.55;;
40256;SDS011;25977;45.462;9.210;2023-07-13T07:58:19;3.42;;;1.48;;
40256;SDS011;25977;45.462;9.210;2023-07-13T08:00:44;2.75;;;1.45;;
40256;SDS011;25977;45.462;9.210;2023-07-13T08:03:10;9.05;;;2.50;;
40256;SDS011;25977;45.462;9.210;2023-07-13T08:05:36;5.05;;;1.50;;
40256;SDS011;25977;45.462;9.210;2023-07-13T08:08:02;6.50;;;1.50;;
40256;SDS011;25977;45.462;9.210;2023-07-13T08:10:28;1.42;;;1.33;;
40256;SDS011;25977;45.462;9.210;2023-07-13T08:12:53;3.25;;;1.20;;
40256;SDS011;25977;45.462;9.210;2023-07-13T08:15:19;5.78;;;2.95;;
40256;SDS011;25977;45.462;9.210;2023-07-13T08:17:46;10.20;;;2.50;;
40256;SDS011;25977;45.462;9.210;2023-07-13T08:20:13;12.30;;;3.10;;
40256;SDS011;25977;45.462;9.210;2023-07-13T08:22:39;4.28;;;2.75;;
40256;SDS011;25977;45.462;9.210;2023-07-13T08:25:05;6.32;;;2.95;;
40256;SDS011;25977;45.462;9.210;2023-07-13T08:27:31;5.50;;;2.75;;
40256;SDS011;25977;45.462;9.210;2023-07-13T08:29:57;6.80;;;2.95;;
40256;SDS011;25977;45.462;9.210;2023-07-13T08:32:23;6.68;;;3.25;;
40256;SDS011;25977;45.462;9.210;2023-07-13T08:34:50;2.63;;;2.30;;
40256;SDS011;25977;45.462;9.210;2023-07-13T08:37:16;6.18;;;2.45;;
40256;SDS011;25977;45.462;9.210;2023-07-13T08:39:42;3.90;;;2.33;;
40256;SDS011;25977;45.462;9.210;2023-07-13T08:47:25;3.95;;;1.20;;
40256;SDS011;25977;45.462;9.210;2023-07-13T08:49:53;1.65;;;1.48;;
40256;SDS011;25977;45.462;9.210;2023-07-13T08:52:33;2.97;;;0.95;;
40256;SDS011;25977;45.462;9.210;2023-07-13T08:55:05;5.35;;;1.20;;
40256;SDS011;25977;45.462;9.210;2023-07-13T08:57:39;3.65;;;1.42;;
40256;SDS011;25977;45.462;9.210;2023-07-13T09:00:11;5.68;;;2.67;;
40256;SDS011;25977;45.462;9.210;2023-07-13T09:05:38;1.73;;;1.55;;
40256;SDS011;25977;45.462;9.210;2023-07-13T09:16:56;5.40;;;2.40;;
40256;SDS011;25977;45.462;9.210;2023-07-13T09:19:24;1.73;;;1.63;;
40256;SDS011;25977;45.462;9.210;2023-07-13T09:21:53;2.42;;;2.20;;
40256;SDS011;25977;45.462;9.210;2023-07-13T09:24:27;3.90;;;2.00;;
40256;SDS011;25977;45.462;9.210;2023-07-13T09:26:54;2.55;;;1.75;;
40256;SDS011;25977;45.462;9.210;2023-07-13T09:29:23;8.68;;;3.47;;
40256;SDS011;25977;45.462;9.210;2023-07-13T09:31:54;4.20;;;2.58;;
40256;SDS011;25977;45.462;9.210;2023-07-13T09:34:23;2.90;;;1.75;;
40256;SDS011;25977;45.462;9.210;2023-07-13T09:36:50;4.00;;;1.92;;
40256;SDS011;25977;45.462;9.210;2023-07-13T09:44:38;3.25;;;2.55;;
40256;SDS011;25977;45.462;9.210;2023-07-13T09:47:18;2.72;;;2.28;;
40256;SDS011;25977;45.462;9.210;2023-07-13T09:49:54;4.13;;;2.83;;
40256;SDS011;25977;45.462;9.210;2023-07-13T09:52:21;3.95;;;3.25;;
40256;SDS011;25977;45.462;9.210;2023-07-13T09:54:48;5.22;;;2.92;;
40256;SDS011;25977;45.462;9.210;2023-07-13T09:57:16;4.28;;;2.90;;
40256;SDS011;25977;45.462;9.210;2023-07-13T09:59:46;5.32;;;2.92;;
40256;SDS011;25977;45.462;9.210;2023-07-13T10:02:32;3.42;;;2.63;;
40256;SDS011;25977;45.462;9.210;2023-07-13T10:05:03;2.17;;;1.98;;
40256;SDS011;25977;45.462;9.210;2023-07-13T10:07:35;2.33;;;1.75;;
40256;SDS011;25977;45.462;9.210;2023-07-13T10:12:38;3.55;;;2.67;;
40256;SDS011;25977;45.462;9.210;2023-07-13T10:15:04;1.70;;;1.60;;
40256;SDS011;25977;45.462;9.210;2023-07-13T10:17:38;1.88;;;1.63;;
40256;SDS011;25977;45.462;9.210;2023-07-13T10:20:05;1.88;;;1.63;;
40256;SDS011;25977;45.462;9.210;2023-07-13T10:25:21;4.22;;;1.85;;
40256;SDS011;25977;45.462;9.210;2023-07-13T10:27:50;2.65;;;1.80;;
40256;SDS011;25977;45.462;9.210;2023-07-13T10:30:32;4.78;;;2.53;;
40256;SDS011;25977;45.462;9.210;2023-07-13T10:33:03;4.25;;;1.42;;
40256;SDS011;25977;45.462;9.210;2023-07-13T10:35:36;2.05;;;1.83;;
40256;SDS011;25977;45.462;9.210;2023-07-13T10:38:06;1.95;;;1.60;;
40256;SDS011;25977;45.462;9.210;2023-07-13T10:40:43;2.97;;;1.80;;
40256;SDS011;25977;45.462;9.210;2023-07-13T10:43:35;8.80;;;1.90;;
40256;SDS011;25977;45.462;9.210;2023-07-13T10:46:11;3.75;;;2.15;;
40256;SDS011;25977;45.462;9.210;2023-07-13T10:48:40;6.05;;;2.35;;
40256;SDS011;25977;45.462;9.210;2023-07-13T10:51:09;3.22;;;2.00;;
40256;SDS011;25977;45.462;9.210;2023-07-13T10:53:37;6.15;;;1.88;;
40256;SDS011;25977;45.462;9.210;2023-07-13T10:56:19;3.33;;;1.47;;
40256;SDS011;25977;45.462;9.210;2023-07-13T10:59:11;1.85;;;1.45;;
40256;SDS011;25977;45.462;9.210;2023-07-13T11:04:20;4.68;;;1.55;;
40256;SDS011;25977;45.462;9.210;2023-07-13T11:06:47;1.67;;;1.58;;
40256;SDS011;25977;45.462;9.210;2023-07-13T11:22:53;4.03;;;2.03;;
40256;SDS011;25977;45.462;9.210;2023-07-13T11:25:36;1.95;;;1.70;;
40256;SDS011;25977;45.462;9.210;2023-07-13T11:30:38;3.85;;;1.80;;
40256;SDS011;25977;45.462;9.210;2023-07-13T11:33:13;3.35;;;1.98;;
40256;SDS011;25977;45.462;9.210;2023-07-13T11:41:20;1.88;;;1.30;;
40256;SDS011;25977;45.462;9.210;2023-07-13T11:43:55;8.77;;;2.72;;
40256;SDS011;25977;45.462;9.210;2023-07-13T11:46:27;3.30;;;2.15;;
40256;SDS011;25977;45.462;9.210;2023-07-13T11:48:53;4.53;;;2.10;;
40256;SDS011;25977;45.462;9.210;2023-07-13T11:53:53;2.28;;;1.75;;
40256;SDS011;25977;45.462;9.210;2023-07-13T11:56:22;3.65;;;2.00;;
40256;SDS011;25977;45.462;9.210;2023-07-13T11:58:49;3.75;;;2.08;;
40256;SDS011;25977;45.462;9.210;2023-07-13T12:01:21;3.95;;;2.15;;
40256;SDS011;25977;45.462;9.210;2023-07-13T12:03:49;4.22;;;2.17;;
40256;SDS011;25977;45.462;9.210;2023-07-13T12:06:31;4.78;;;2.38;;
40256;SDS011;25977;45.462;9.210;2023-07-13T12:09:11;3.50;;;3.20;;
40256;SDS011;25977;45.462;9.210;2023-07-13T12:11:41;9.50;;;2.72;;
40256;SDS011;25977;45.462;9.210;2023-07-13T12:14:26;3.05;;;2.00;;
40256;SDS011;25977;45.462;9.210;2023-07-13T12:16:51;6.60;;;2.03;;
40256;SDS011;25977;45.462;9.210;2023-07-13T12:22:01;4.50;;;1.98;;
40256;SDS011;25977;45.462;9.210;2023-07-13T12:24:27;10.80;;;2.00;;
40256;SDS011;25977;45.462;9.210;2023-07-13T12:29:21;10.45;;;2.17;;
40256;SDS011;25977;45.462;9.210;2023-07-13T12:31:48;4.22;;;2.53;;
40256;SDS011;25977;45.462;9.210;2023-07-13T12:34:16;4.13;;;2.33;;
40256;SDS011;25977;45.462;9.210;2023-07-13T12:36:53;2.67;;;1.92;;
40256;SDS011;25977;45.462;9.210;2023-07-13T12:39:36;4.85;;;2.28;;
40256;SDS011;25977;45.462;9.210;2023-07-13T12:42:14;3.15;;;2.33;;
40256;SDS011;25977;45.462;9.210;2023-07-13T12:44:45;2.53;;;2.05;;
40256;SDS011;25977;45.462;9.210;2023-07-13T12:47:12;5.45;;;2.33;;
40256;SDS011;25977;45.462;9.210;2023-07-13T12:49:41;4.35;;;1.98;;
40256;SDS011;25977;45.462;9.210;2023-07-13T12:52:31;5.40;;;1.90;;
40256;SDS011;25977;45.462;9.210;2023-07-13T12:55:02;4.47;;;2.83;;
40256;SDS011;25977;45.462;9.210;2023-07-13T12:57:30;6.30;;;1.90;;
40256;SDS011;25977;45.462;9.210;2023-07-13T12:59:56;5.75;;;1.80;;
40256;SDS011;25977;45.462;9.210;2023-07-13T13:02:29;6.63;;;2.10;;
40256;SDS011;25977;45.462;9.210;2023-07-13T13:04:57;5.15;;;2.33;;
40256;SDS011;25977;45.462;9.210;2023-07-13T13:07:24;11.50;;;3.75;;
40256;SDS011;25977;45.462;9.210;2023-07-13T13:09:50;4.18;;;2.15;;
40256;SDS011;25977;45.462;9.210;2023-07-13T13:12:18;6.57;;;2.85;;
40256;SDS011;25977;45.462;9.210;2023-07-13T13:14:44;4.25;;;1.70;;
40256;SDS011;25977;45.462;9.210;2023-07-13T13:17:21;4.28;;;2.05;;
40256;SDS011;25977;45.462;9.210;2023-07-13T13:19:50;3.85;;;2.53;;
40256;SDS011;25977;45.462;9.210;2023-07-13T13:22:19;9.75;;;2.75;;
40256;SDS011;25977;45.462;9.210;2023-07-13T13:24:45;2.28;;;1.80;;
40256;SDS011;25977;45.462;9.210;2023-07-13T13:27:15;2.38;;;2.15;;
40256;SDS011;25977;45.462;9.210;2023-07-13T13:29:43;8.63;;;1.85;;
40256;SDS011;25977;45.462;9.210;2023-07-13T13:32:13;2.75;;;1.98;;
40256;SDS011;25977;45.462;9.210;2023-07-13T13:34:40;4.15;;;1.92;;
40256;SDS011;25977;45.462;9.210;2023-07-13T13:37:25;3.95;;;2.00;;
40256;SDS011;25977;45.462;9.210;2023-07-13T13:39:51;5.50;;;2.67;;
40256;SDS011;25977;45.462;9.210;2023-07-13T13:42:18;8.68;;;2.75;;
40256;SDS011;25977;45.462;9.210;2023-07-13T13:44:46;2.85;;;2.60;;
40256;SDS011;25977;45.462;9.210;2023-07-13T13:47:45;4.35;;;2.55;;
40256;SDS011;25977;45.462;9.210;2023-07-13T13:50:12;4.25;;;1.98;;
40256;SDS011;25977;45.462;9.210;2023-07-13T13:52:40;4.55;;;2.67;;
40256;SDS011;25977;45.462;9.210;2023-07-13T14:12:08;5.90;;;3.55;;
40256;SDS011;25977;45.462;9.210;2023-07-13T14:14:37;6.13;;;2.95;;
40256;SDS011;25977;45.462;9.210;2023-07-13T14:17:03;5.22;;;3.90;;
40256;SDS011;25977;45.462;9.210;2023-07-13T14:19:29;6.20;;;2.75;;
40256;SDS011;25977;45.462;9.210;2023-07-13T14:21:55;4.53;;;2.53;;
40256;SDS011;25977;45.462;9.210;2023-07-13T14:24:21;8.95;;;3.00;;
40256;SDS011;25977;45.462;9.210;2023-07-13T14:26:46;5.38;;;2.90;;
40256;SDS011;25977;45.462;9.210;2023-07-13T14:29:13;12.73;;;3.45;;
40256;SDS011;25977;45.462;9.210;2023-07-13T14:31:42;4.65;;;2.25;;
40256;SDS011;25977;45.462;9.210;2023-07-13T14:34:09;7.70;;;2.83;;
40256;SDS011;25977;45.462;9.210;2023-07-13T14:36:42;8.95;;;3.42;;
40256;SDS011;25977;45.462;9.210;2023-07-13T14:39:14;5.72;;;3.17;;
40256;SDS011;25977;45.462;9.210;2023-07-13T14:44:14;5.55;;;3.80;;
40256;SDS011;25977;45.462;9.210;2023-07-13T14:46:42;9.68;;;4.13;;
40256;SDS011;25977;45.462;9.210;2023-07-13T14:51:59;8.95;;;2.90;;
40256;SDS011;25977;45.462;9.210;2023-07-13T14:54:28;13.55;;;3.20;;
40256;SDS011;25977;45.462;9.210;2023-07-13T14:56:53;3.05;;;2.47;;
40256;SDS011;25977;45.462;9.210;2023-07-13T14:59:19;3.75;;;2.95;;
40256;SDS011;25977;45.462;9.210;2023-07-13T15:01:45;9.77;;;2.80;;
40256;SDS011;25977;45.462;9.210;2023-07-13T15:04:12;7.50;;;2.55;;
40256;SDS011;25977;45.462;9.210;2023-07-13T15:06:54;3.95;;;2.50;;
40256;SDS011;25977;45.462;9.210;2023-07-13T15:09:22;7.00;;;2.65;;
40256;SDS011;25977;45.462;9.210;2023-07-13T15:11:50;3.92;;;2.90;;
40256;SDS011;25977;45.462;9.210;2023-07-13T15:14:17;6.25;;;2.83;;
40256;SDS011;25977;45.462;9.210;2023-07-13T15:16:43;7.15;;;3.50;;
40256;SDS011;25977;45.462;9.210;2023-07-13T15:19:10;5.43;;;2.38;;
40256;SDS011;25977;45.462;9.210;2023-07-13T15:21:36;3.85;;;2.78;;
40256;SDS011;25977;45.462;9.210;2023-07-13T15:24:02;4.85;;;2.80;;
40256;SDS011;25977;45.462;9.210;2023-07-13T15:26:28;3.95;;;2.70;;
40256;SDS011;25977;45.462;9.210;2023-07-13T15:28:53;13.82;;;3.75;;
40256;SDS011;25977;45.462;9.210;2023-07-13T15:31:23;6.07;;;2.70;;
40256;SDS011;25977;45.462;9.210;2023-07-13T15:33:51;5.50;;;3.10;;
40256;SDS011;25977;45.462;9.210;2023-07-13T15:36:18;5.38;;;3.00;;
40256;SDS011;25977;45.462;9.210;2023-07-13T15:38:45;3.90;;;2.50;;
40256;SDS011;25977;45.462;9.210;2023-07-13T15:41:33;3.95;;;2.47;;
40256;SDS011;25977;45.462;9.210;2023-07-13T15:43:59;3.47;;;2.50;;
40256;SDS011;25977;45.462;9.210;2023-07-13T15:46:46;5.28;;;2.97;;
40256;SDS011;25977;45.462;9.210;2023-07-13T15:49:11;4.07;;;3.05;;
40256;SDS011;25977;45.462;9.210;2023-07-13T15:51:37;8.73;;;2.75;;
40256;SDS011;25977;45.462;9.210;2023-07-13T15:54:03;4.18;;;2.40;;
40256;SDS011;25977;45.462;9.210;2023-07-13T15:56:34;7.07;;;3.28;;
40256;SDS011;25977;45.462;9.210;2023-07-13T15:59:02;5.72;;;3.20;;
40256;SDS011;25977;45.462;9.210;2023-07-13T16:01:28;3.75;;;3.42;;
40256;SDS011;25977;45.462;9.210;2023-07-13T16:03:55;6.25;;;3.53;;
40256;SDS011;25977;45.462;9.210;2023-07-13T16:06:34;3.35;;;2.63;;
40256;SDS011;25977;45.462;9.210;2023-07-13T16:09:02;7.78;;;2.75;;
40256;SDS011;25977;45.462;9.210;2023-07-13T16:11:37;9.13;;;3.25;;
40256;SDS011;25977;45.462;9.210;2023-07-13T16:14:04;6.40;;;2.67;;
40256;SDS011;25977;45.462;9.210;2023-07-13T16:16:31;8.80;;;3.33;;